Observation data for Pampa on 08/11/2019      Previous  Date  Next       Current Mesonet Observations  Soil Data  Daily Summary Page  Observations in Plain Language
KPMS 110500Z 14008KT 26/13 A3001 RMK A01 T02600134  RH  047%=      5-min Rain = 0
KPMS 110505Z 15008KT 26/13 A3001 RMK A01 T02570133  RH  048%=      5-min Rain = 0
KPMS 110510Z 15008KT 26/13 A3001 RMK A01 T02560133  RH  048%=      5-min Rain = 0
KPMS 110515Z 15008KT 26/13 A3001 RMK A01 T02560131  RH  048%=      5-min Rain = 0
KPMS 110520Z 15009KT 26/13 A3001 RMK A01 T02580130  RH  047%=      5-min Rain = 0
KPMS 110525Z 15009KT 26/13 A3001 RMK A01 T02580129  RH  047%=      5-min Rain = 0
KPMS 110530Z 15010KT 26/13 A3001 RMK A01 T02600128  RH  046%=      5-min Rain = 0
KPMS 110535Z 16010KT 26/13 A3001 RMK A01 T02630127  RH  044%=      5-min Rain = 0
KPMS 110540Z 16010KT 26/13 A3001 RMK A01 T02640127  RH  044%=      5-min Rain = 0
KPMS 110545Z 16010KT 26/13 A3001 RMK A01 T02630126  RH  044%=      5-min Rain = 0
KPMS 110550Z 16010KT 26/13 A3001 RMK A01 T02620126  RH  044%=      5-min Rain = 0
KPMS 110555Z 16011KT 26/13 A3001 RMK A01 T02630126  RH  044%=      5-min Rain = 0
KPMS 110600Z 16010KT 26/13 A3001 RMK A01 T02630126  RH  044%=      5-min Rain = 0
KPMS 110605Z 16011KT 26/13 A3001 RMK A01 T02640126  RH  044%=      5-min Rain = 0
KPMS 110610Z 17010KT 26/13 A3001 RMK A01 T02640126  RH  044%=      5-min Rain = 0
KPMS 110615Z 17011KT 26/13 A3001 RMK A01 T02640126  RH  044%=      5-min Rain = 0
KPMS 110620Z 16010KT 26/13 A3001 RMK A01 T02620127  RH  045%=      5-min Rain = 0
KPMS 110625Z 16010KT 26/13 A30 RMK A01 T02600127  RH  045%=      5-min Rain = 0
KPMS 110630Z 16010KT 26/13 A30 RMK A01 T02600127  RH  046%=      5-min Rain = 0
KPMS 110635Z 16011KT 26/13 A30 RMK A01 T02590128  RH  046%=      5-min Rain = 0
KPMS 110640Z 17011KT 26/13 A30 RMK A01 T02580128  RH  046%=      5-min Rain = 0
KPMS 110645Z 17010KT 26/13 A30 RMK A01 T02570128  RH  046%=      5-min Rain = 0
KPMS 110650Z 17010KT 26/13 A30 RMK A01 T02560129  RH  047%=      5-min Rain = 0
KPMS 110655Z 16010KT 25/13 A30 RMK A01 T02540129  RH  048%=      5-min Rain = 0
KPMS 110700Z 16010KT 25/13 A30 RMK A01 T02530129  RH  048%=      5-min Rain = 0
KPMS 110705Z 16009KT 25/13 A30 RMK A01 T02520129  RH  048%=      5-min Rain = 0
KPMS 110710Z 16009KT 25/13 A30 RMK A01 T02510129  RH  049%=      5-min Rain = 0
KPMS 110715Z 16009KT 25/13 A30 RMK A01 T02510130  RH  049%=      5-min Rain = 0
KPMS 110720Z 16009KT 25/13 A30 RMK A01 T02500130  RH  049%=      5-min Rain = 0
KPMS 110725Z 16009KT 25/13 A30 RMK A01 T02490131  RH  050%=      5-min Rain = 0
KPMS 110730Z 16009KT 25/13 A30 RMK A01 T02480131  RH  050%=      5-min Rain = 0
KPMS 110735Z 16009KT 25/13 A30 RMK A01 T02480132  RH  050%=      5-min Rain = 0
KPMS 110740Z 16009KT 25/13 A30 RMK A01 T02470132  RH  051%=      5-min Rain = 0
KPMS 110745Z 16009KT 25/13 A30 RMK A01 T02460133  RH  051%=      5-min Rain = 0
KPMS 110750Z 16009KT 25/13 A30 RMK A01 T02460134  RH  052%=      5-min Rain = 0
KPMS 110755Z 16008KT 25/13 A30 RMK A01 T02470134  RH  051%=      5-min Rain = 0
KPMS 110800Z 16009KT 25/13 A30 RMK A01 T02480134  RH  051%=      5-min Rain = 0
KPMS 110805Z 16009KT 25/14 A30 RMK A01 T02480135  RH  052%=      5-min Rain = 0
KPMS 110810Z 16008KT 25/14 A30 RMK A01 T02460136  RH  052%=      5-min Rain = 0
KPMS 110815Z 17008KT 25/14 A30 RMK A01 T02450136  RH  053%=      5-min Rain = 0
KPMS 110820Z 17008KT 25/14 A30 RMK A01 T02450136  RH  053%=      5-min Rain = 0
KPMS 110825Z 17008KT 24/14 A30 RMK A01 T02430137  RH  054%=      5-min Rain = 0
KPMS 110830Z 17008KT 24/14 A30 RMK A01 T02420138  RH  054%=      5-min Rain = 0
KPMS 110835Z 17008KT 24/14 A30 RMK A01 T02420138  RH  055%=      5-min Rain = 0
KPMS 110840Z 17008KT 24/14 A30 RMK A01 T02390139  RH  056%=      5-min Rain = 0
KPMS 110845Z 17008KT 24/14 A30 RMK A01 T02370140  RH  057%=      5-min Rain = 0
KPMS 110850Z 16008KT 24/14 A30 RMK A01 T02370141  RH  057%=      5-min Rain = 0
KPMS 110855Z 16009KT 24/14 A30 RMK A01 T02370141  RH  057%=      5-min Rain = 0
KPMS 110900Z 16008KT 24/14 A2999 RMK A01 T02370141  RH  057%=      5-min Rain = 0
KPMS 110905Z 16008KT 24/14 A2999 RMK A01 T02380141  RH  057%=      5-min Rain = 0
KPMS 110910Z 16008KT 24/14 A2999 RMK A01 T02400141  RH  056%=      5-min Rain = 0
KPMS 110915Z 16009KT 24/14 A2999 RMK A01 T02390141  RH  057%=      5-min Rain = 0
KPMS 110920Z 16008KT 24/14 A2999 RMK A01 T02380142  RH  057%=      5-min Rain = 0
KPMS 110925Z 15008KT 24/14 A2999 RMK A01 T02360142  RH  058%=      5-min Rain = 0
KPMS 110930Z 15008KT 23/14 A2999 RMK A01 T02340142  RH  058%=      5-min Rain = 0
KPMS 110935Z 15008KT 24/14 A2999 RMK A01 T02360142  RH  058%=      5-min Rain = 0
KPMS 110940Z 15008KT 24/14 A2999 RMK A01 T02360142  RH  058%=      5-min Rain = 0
KPMS 110945Z 15008KT 24/14 A2999 RMK A01 T02350142  RH  058%=      5-min Rain = 0
KPMS 110950Z 15007KT 23/14 A2999 RMK A01 T02310143  RH  060%=      5-min Rain = 0
KPMS 110955Z 15007KT 23/14 A2999 RMK A01 T02290143  RH  061%=      5-min Rain = 0
KPMS 111000Z 15008KT 23/14 A2999 RMK A01 T02270143  RH  062%=      5-min Rain = 0
KPMS 111005Z 15008KT 23/14 A2999 RMK A01 T02270143  RH  062%=      5-min Rain = 0
KPMS 111010Z 15009KT 23/14 A2999 RMK A01 T02270143  RH  062%=      5-min Rain = 0
KPMS 111015Z 14008KT 23/14 A2999 RMK A01 T02260144  RH  062%=      5-min Rain = 0
KPMS 111020Z 14007KT 23/14 A30 RMK A01 T02260143  RH  062%=      5-min Rain = 0
KPMS 111025Z 15007KT 23/14 A30 RMK A01 T02250143  RH  062%=      5-min Rain = 0
KPMS 111030Z 15008KT 23/14 A30 RMK A01 T02250143  RH  062%=      5-min Rain = 0
KPMS 111035Z 16008KT 23/14 A30 RMK A01 T02290142  RH  061%=      5-min Rain = 0
KPMS 111040Z 16008KT 23/14 A30 RMK A01 T02320143  RH  060%=      5-min Rain = 0
KPMS 111045Z 17008KT 23/14 A3001 RMK A01 T02310144  RH  060%=      5-min Rain = 0
KPMS 111050Z 16008KT 23/14 A30 RMK A01 T02290144  RH  061%=      5-min Rain = 0
KPMS 111055Z 16008KT 23/14 A30 RMK A01 T02270144  RH  062%=      5-min Rain = 0
KPMS 111100Z 16008KT 23/14 A3001 RMK A01 T02270144  RH  062%=      5-min Rain = 0
KPMS 111105Z 17008KT 23/15 A3001 RMK A01 T02280145  RH  062%=      5-min Rain = 0
KPMS 111110Z 17008KT 23/15 A3001 RMK A01 T02270146  RH  063%=      5-min Rain = 0
KPMS 111115Z 17008KT 23/15 A30 RMK A01 T02260145  RH  063%=      5-min Rain = 0
KPMS 111120Z 17008KT 23/15 A3001 RMK A01 T02260145  RH  063%=      5-min Rain = 0
KPMS 111125Z 17007KT 23/15 A3001 RMK A01 T02250146  RH  064%=      5-min Rain = 0
KPMS 111130Z 17007KT 23/15 A3001 RMK A01 T02270146  RH  063%=      5-min Rain = 0
KPMS 111135Z 17007KT 23/15 A3001 RMK A01 T02260146  RH  063%=      5-min Rain = 0
KPMS 111140Z 17007KT 22/15 A3001 RMK A01 T02230146  RH  065%=      5-min Rain = 0
KPMS 111145Z 17007KT 22/15 A3001 RMK A01 T02210147  RH  066%=      5-min Rain = 0
KPMS 111150Z 17006KT 22/15 A3001 RMK A01 T02200146  RH  066%=      5-min Rain = 0
KPMS 111155Z 17006KT 22/15 A3001 RMK A01 T02220146  RH  065%=      5-min Rain = 0
KPMS 111200Z 17006KT 22/15 A3002 RMK A01 T02220147  RH  065%=      5-min Rain = 0
KPMS 111205Z 17006KT 22/15 A3002 RMK A01 T02220147  RH  065%=      5-min Rain = 0
KPMS 111210Z 17006KT 22/15 A3002 RMK A01 T02240147  RH  064%=      5-min Rain = 0
KPMS 111215Z 18006KT 23/15 A3002 RMK A01 T02250148  RH  064%=      5-min Rain = 0
KPMS 111220Z 19005KT 23/15 A3002 RMK A01 T02250149  RH  065%=      5-min Rain = 0
KPMS 111225Z 19006KT 23/15 A3002 RMK A01 T02260149  RH  065%=      5-min Rain = 0
KPMS 111230Z 19006KT 23/15 A3002 RMK A01 T02290150  RH  064%=      5-min Rain = 0
KPMS 111235Z 18006KT 23/15 A3002 RMK A01 T02330150  RH  062%=      5-min Rain = 0
KPMS 111240Z 19006KT 24/15 A3002 RMK A01 T02350150  RH  062%=      5-min Rain = 0
KPMS 111245Z 19006KT 24/15 A3002 RMK A01 T02370151  RH  061%=      5-min Rain = 0
KPMS 111250Z 19007KT 24/15 A3003 RMK A01 T02390151  RH  060%=      5-min Rain = 0
KPMS 111255Z 20006KT 24/15 A3003 RMK A01 T02430152  RH  059%=      5-min Rain = 0
KPMS 111300Z 20006KT 25/15 A3003 RMK A01 T02450154  RH  060%=      5-min Rain = 0
KPMS 111305Z 21005KT 25/16 A3003 RMK A01 T02460156  RH  060%=      5-min Rain = 0
KPMS 111310Z 21006KT 25/16 A3003 RMK A01 T02480158  RH  060%=      5-min Rain = 0
KPMS 111315Z 21005KT 25/16 A3004 RMK A01 T02540159  RH  058%=      5-min Rain = 0
KPMS 111320Z 21005KT 26/16 A3004 RMK A01 T02590159  RH  057%=      5-min Rain = 0
KPMS 111325Z 20006KT 26/16 A3004 RMK A01 T02610159  RH  056%=      5-min Rain = 0
KPMS 111330Z 20006KT 26/16 A3004 RMK A01 T02630159  RH  055%=      5-min Rain = 0
KPMS 111335Z 20007KT 27/16 A3004 RMK A01 T02660161  RH  055%=      5-min Rain = 0
KPMS 111340Z 19007KT 27/16 A3004 RMK A01 T02670160  RH  054%=      5-min Rain = 0
KPMS 111345Z 19007KT 27/16 A3004 RMK A01 T02670160  RH  054%=      5-min Rain = 0
KPMS 111350Z 19007KT 27/16 A3004 RMK A01 T02670160  RH  054%=      5-min Rain = 0
KPMS 111355Z 20007KT 27/16 A3004 RMK A01 T02680161  RH  055%=      5-min Rain = 0
KPMS 111400Z 19005KT 27/16 A3005 RMK A01 T02680163  RH  055%=      5-min Rain = 0
KPMS 111405Z 20005KT 27/16 A3005 RMK A01 T02670163  RH  055%=      5-min Rain = 0
KPMS 111410Z 20005KT 27/16 A3005 RMK A01 T02680164  RH  055%=      5-min Rain = 0
KPMS 111415Z 20004KT 27/16 A3005 RMK A01 T02680164  RH  055%=      5-min Rain = 0
KPMS 111420Z 21005KT 28/17 A3005 RMK A01 T02780166  RH  053%=      5-min Rain = 0
KPMS 111425Z 20007KT 29/17 A3005 RMK A01 T02860165  RH  050%=      5-min Rain = 0
KPMS 111430Z 21006KT 29/17 A3005 RMK A01 T02880166  RH  050%=      5-min Rain = 0
KPMS 111435Z 22006KT 29/17 A3005 RMK A01 T02900165  RH  049%=      5-min Rain = 0
KPMS 111440Z 21006KT 30/17 A3004 RMK A01 T02950166  RH  048%=      5-min Rain = 0
KPMS 111445Z 22008KT 30/16 A3004 RMK A01 T02950162  RH  047%=      5-min Rain = 0
KPMS 111450Z 22008G13KT 30/16 A3005 RMK A01 T03000160  RH  045%=      5-min Rain = 0
KPMS 111455Z 23010G16KT 31/15 A3005 RMK A01 T03070153  RH  041%=      5-min Rain = 0
KPMS 111500Z 22012KT 30/15 A3005 RMK A01 T03010148  RH  041%=      5-min Rain = 0
KPMS 111505Z 22010KT 30/15 A3005 RMK A01 T02980149  RH  042%=      5-min Rain = 0
KPMS 111510Z 23010KT 31/15 A3004 RMK A01 T03050150  RH  041%=      5-min Rain = 0
KPMS 111515Z 23010KT 31/15 A3004 RMK A01 T03090151  RH  040%=      5-min Rain = 0
KPMS 111520Z 22010KT 31/15 A3004 RMK A01 T03060151  RH  041%=      5-min Rain = 0
KPMS 111525Z 22009KT 31/15 A3004 RMK A01 T03070151  RH  041%=      5-min Rain = 0
KPMS 111530Z 23009G17KT 32/15 A3004 RMK A01 T03150151  RH  039%=      5-min Rain = 0
KPMS 111535Z 23015G21KT 32/15 A3004 RMK A01 T03180146  RH  037%=      5-min Rain = 0
KPMS 111540Z 23013G20KT 32/15 A3004 RMK A01 T03200146  RH  036%=      5-min Rain = 0
KPMS 111545Z 23013G19KT 33/15 A3004 RMK A01 T03260146  RH  035%=      5-min Rain = 0
KPMS 111550Z 23012G17KT 33/15 A3004 RMK A01 T03250147  RH  036%=      5-min Rain = 0
KPMS 111555Z 21012G19KT 33/15 A3004 RMK A01 T03280150  RH  036%=      5-min Rain = 0
KPMS 111600Z 21013G18KT 33/15 A3004 RMK A01 T03270150  RH  036%=      5-min Rain = 0
KPMS 111605Z 21013KT 33/15 A3004 RMK A01 T03290151  RH  036%=      5-min Rain = 0
KPMS 111610Z 21011G16KT 33/15 A3004 RMK A01 T03310153  RH  036%=      5-min Rain = 0
KPMS 111615Z 21011G16KT 34/15 A3004 RMK A01 T03370153  RH  035%=      5-min Rain = 0
KPMS 111620Z 20013G18KT 34/15 A3004 RMK A01 T03350152  RH  035%=      5-min Rain = 0
KPMS 111625Z 21012G19KT 34/15 A3004 RMK A01 T03360151  RH  035%=      5-min Rain = 0
KPMS 111630Z 20013G19KT 34/15 A3004 RMK A01 T03350151  RH  035%=      5-min Rain = 0
KPMS 111635Z 20013G18KT 34/15 A3004 RMK A01 T03370151  RH  034%=      5-min Rain = 0
KPMS 111640Z 21012G18KT 34/15 A3004 RMK A01 T03400153  RH  034%=      5-min Rain = 0
KPMS 111645Z 20012G19KT 34/15 A3004 RMK A01 T03410153  RH  034%=      5-min Rain = 0
KPMS 111650Z 21012G17KT 34/15 A3004 RMK A01 T03420153  RH  034%=      5-min Rain = 0
KPMS 111655Z 21010KT 35/15 A3004 RMK A01 T03460154  RH  033%=      5-min Rain = 0
KPMS 111700Z 20012G19KT 35/16 A3004 RMK A01 T03460155  RH  034%=      5-min Rain = 0
KPMS 111705Z 20013KT 35/16 A3004 RMK A01 T03450155  RH  034%=      5-min Rain = 0
KPMS 111710Z 20012G17KT 35/15 A3004 RMK A01 T03450153  RH  033%=      5-min Rain = 0
KPMS 111715Z 20012G17KT 35/16 A3003 RMK A01 T03470155  RH  033%=      5-min Rain = 0
KPMS 111720Z 20013G21KT 35/16 A3003 RMK A01 T03480155  RH  033%=      5-min Rain = 0
KPMS 111725Z 20012G19KT 35/16 A3003 RMK A01 T03510156  RH  033%=      5-min Rain = 0
KPMS 111730Z 21011G16KT 35/15 A3003 RMK A01 T03530154  RH  032%=      5-min Rain = 0
KPMS 111735Z 20011KT 36/16 A3003 RMK A01 T03570156  RH  032%=      5-min Rain = 0
KPMS 111740Z 21011G17KT 36/16 A3003 RMK A01 T03580155  RH  031%=      5-min Rain = 0
KPMS 111745Z 20011G19KT 36/16 A3002 RMK A01 T03570155  RH  031%=      5-min Rain = 0
KPMS 111750Z 21011G17KT 36/15 A3002 RMK A01 T03560153  RH  031%=      5-min Rain = 0
KPMS 111755Z 21012G17KT 36/15 A3002 RMK A01 T03560154  RH  032%=      5-min Rain = 0
KPMS 111800Z 21012G18KT 36/15 A3002 RMK A01 T03550151  RH  031%=      5-min Rain = 0
KPMS 111805Z 20011G16KT 36/16 A3002 RMK A01 T03570156  RH  032%=      5-min Rain = 0
KPMS 111810Z 21011G16KT 36/15 A3002 RMK A01 T03560152  RH  031%=      5-min Rain = 0
KPMS 111815Z 20011G16KT 36/15 A3002 RMK A01 T03580153  RH  031%=      5-min Rain = 0
KPMS 111820Z 21012G19KT 36/15 A3002 RMK A01 T03580150  RH  030%=      5-min Rain = 0
KPMS 111825Z 21012G17KT 36/15 A3001 RMK A01 T03610149  RH  030%=      5-min Rain = 0
KPMS 111830Z 21013G19KT 36/15 A3001 RMK A01 T03640148  RH  029%=      5-min Rain = 0
KPMS 111835Z 20013G18KT 36/15 A3001 RMK A01 T03560149  RH  030%=      5-min Rain = 0
KPMS 111840Z 20012KT 36/15 A3001 RMK A01 T03590151  RH  030%=      5-min Rain = 0
KPMS 111845Z 19012KT 37/15 A3001 RMK A01 T03650150  RH  029%=      5-min Rain = 0
KPMS 111850Z 20013G19KT 36/15 A3001 RMK A01 T03600146  RH  029%=      5-min Rain = 0
KPMS 111855Z 20013G18KT 36/15 A30 RMK A01 T03600149  RH  030%=      5-min Rain = 0
KPMS 111900Z 20012G18KT 36/15 A30 RMK A01 T03600152  RH  030%=      5-min Rain = 0
KPMS 111905Z 20012G17KT 37/15 A30 RMK A01 T03650154  RH  030%=      5-min Rain = 0
KPMS 111910Z 20011G17KT 36/15 A30 RMK A01 T03620153  RH  030%=      5-min Rain = 0
KPMS 111915Z 21011KT 37/16 A30 RMK A01 T03660156  RH  030%=      5-min Rain = 0
KPMS 111920Z 20011G18KT 37/16 A2999 RMK A01 T03660155  RH  030%=      5-min Rain = 0
KPMS 111925Z 18013G20KT 37/15 A2999 RMK A01 T03720149  RH  028%=      5-min Rain = 0
KPMS 111930Z 19014G20KT 37/15 A2999 RMK A01 T03720151  RH  028%=      5-min Rain = 0
KPMS 111935Z 20012G17KT 37/15 A2999 RMK A01 T03670148  RH  029%=      5-min Rain = 0
KPMS 111940Z 19012KT 37/15 A2998 RMK A01 T03720149  RH  028%=      5-min Rain = 0
KPMS 111945Z 19012G18KT 37/15 A2998 RMK A01 T03710149  RH  028%=      5-min Rain = 0
KPMS 111950Z 18014G23KT 37/15 A2998 RMK A01 T03710147  RH  028%=      5-min Rain = 0
KPMS 111955Z 19015G21KT 38/15 A2998 RMK A01 T03750150  RH  028%=      5-min Rain = 0
KPMS 112000Z 18015G21KT 37/14 A2997 RMK A01 T03730144  RH  027%=      5-min Rain = 0
KPMS 112005Z 20012G18KT 37/15 A2997 RMK A01 T03730146  RH  027%=      5-min Rain = 0
KPMS 112010Z 21012G17KT 38/14 A2997 RMK A01 T03750144  RH  027%=      5-min Rain = 0
KPMS 112015Z 21011G19KT 37/14 A2997 RMK A01 T03740142  RH  026%=      5-min Rain = 0
KPMS 112020Z 19015G20KT 37/14 A2997 RMK A01 T03740144  RH  027%=      5-min Rain = 0
KPMS 112025Z 19011G18KT 37/14 A2997 RMK A01 T03710142  RH  027%=      5-min Rain = 0
KPMS 112030Z 21011G17KT 38/15 A2997 RMK A01 T03750145  RH  027%=      5-min Rain = 0
KPMS 112035Z 20012G20KT 38/15 A2996 RMK A01 T03760145  RH  027%=      5-min Rain = 0
KPMS 112040Z 20010G19KT 37/14 A2996 RMK A01 T03740144  RH  027%=      5-min Rain = 0
KPMS 112045Z 19014G23KT 37/14 A2996 RMK A01 T03740144  RH  027%=      5-min Rain = 0
KPMS 112050Z 19010G15KT 38/14 A2996 RMK A01 T03760142  RH  026%=      5-min Rain = 0
KPMS 112055Z 18009G14KT 38/14 A2996 RMK A01 T03790143  RH  026%=      5-min Rain = 0
KPMS 112100Z 18011G16KT 38/14 A2996 RMK A01 T03800144  RH  026%=      5-min Rain = 0
KPMS 112105Z 19009G14KT 38/14 A2996 RMK A01 T03770143  RH  026%=      5-min Rain = 0
KPMS 112110Z 21008KT 38/14 A2995 RMK A01 T03770142  RH  026%=      5-min Rain = 0
KPMS 112115Z 19012G18KT 38/15 A2995 RMK A01 T03780145  RH  026%=      5-min Rain = 0
KPMS 112120Z 18012G17KT 38/14 A2995 RMK A01 T03810142  RH  025%=      5-min Rain = 0
KPMS 112125Z 16011KT 38/14 A2994 RMK A01 T03840141  RH  025%=      5-min Rain = 0
KPMS 112130Z 18010G18KT 38/14 A2994 RMK A01 T03840138  RH  024%=      5-min Rain = 0
KPMS 112135Z 18008G14KT 38/14 A2994 RMK A01 T03840138  RH  024%=      5-min Rain = 0
KPMS 112140Z 17010G16KT 39/14 A2994 RMK A01 T03860140  RH  024%=      5-min Rain = 0
KPMS 112145Z 16011G16KT 39/13 A2993 RMK A01 T03870134  RH  023%=      5-min Rain = 0
KPMS 112150Z 16011G16KT 38/13 A2993 RMK A01 T03810132  RH  024%=      5-min Rain = 0
KPMS 112155Z 18010G17KT 38/14 A2993 RMK A01 T03770136  RH  025%=      5-min Rain = 0
KPMS 112200Z 18011KT 38/14 A2993 RMK A01 T03810137  RH  024%=      5-min Rain = 0
KPMS 112205Z 17012G17KT 38/14 A2993 RMK A01 T03810137  RH  024%=      5-min Rain = 0
KPMS 112210Z 17011G16KT 38/14 A2993 RMK A01 T03800135  RH  024%=      5-min Rain = 0
KPMS 112215Z 16010KT 38/13 A2993 RMK A01 T03840134  RH  024%=      5-min Rain = 0
KPMS 112220Z 18011KT 38/13 A2992 RMK A01 T03810133  RH  024%=      5-min Rain = 0
KPMS 112225Z 18010G16KT 38/13 A2992 RMK A01 T03790133  RH  024%=      5-min Rain = 0
KPMS 112230Z 19010G15KT 38/13 A2992 RMK A01 T03800134  RH  024%=      5-min Rain = 0
KPMS 112235Z 18008KT 38/13 A2992 RMK A01 T03790132  RH  024%=      5-min Rain = 0
KPMS 112240Z 20007G12KT 38/13 A2992 RMK A01 T03830134  RH  024%=      5-min Rain = 0
KPMS 112245Z 19010KT 38/13 A2992 RMK A01 T03820132  RH  024%=      5-min Rain = 0
KPMS 112250Z 16012G17KT 38/14 A2992 RMK A01 T03830135  RH  024%=      5-min Rain = 0
KPMS 112255Z 14009KT 37/13 A2992 RMK A01 T03740134  RH  025%=      5-min Rain = 0
KPMS 112300Z 19008KT 38/14 A2992 RMK A01 T03750137  RH  025%=      5-min Rain = 0
KPMS 112305Z 18008KT 37/14 A2992 RMK A01 T03670137  RH  027%=      5-min Rain = 0
KPMS 112310Z 17010KT 36/14 A2992 RMK A01 T03640137  RH  027%=      5-min Rain = 0
KPMS 112315Z 18012KT 37/14 A2992 RMK A01 T03720138  RH  026%=      5-min Rain = 0
KPMS 112320Z 19011KT 38/14 A2992 RMK A01 T03750139  RH  026%=      5-min Rain = 0
KPMS 112325Z 19012G17KT 38/14 A2992 RMK A01 T03750140  RH  026%=      5-min Rain = 0
KPMS 112330Z 19011G16KT 37/13 A2992 RMK A01 T03740134  RH  025%=      5-min Rain = 0
KPMS 112335Z 19010KT 37/13 A2992 RMK A01 T03720134  RH  025%=      5-min Rain = 0
KPMS 112340Z 19010KT 36/13 A2992 RMK A01 T03630132  RH  026%=      5-min Rain = 0
KPMS 112345Z 19009G15KT 36/13 A2992 RMK A01 T03640133  RH  026%=      5-min Rain = 0
KPMS 112350Z 17010KT 37/14 A2992 RMK A01 T03700137  RH  026%=      5-min Rain = 0
KPMS 112355Z 19009KT 37/14 A2992 RMK A01 T03650135  RH  026%=      5-min Rain = 0
KPMS 120000Z 28008G13KT 34/14 A2992 RMK A01 T03410143  RH  032%=      5-min Rain = 0
KPMS 120005Z 31009KT 34/14 A2992 RMK A01 T03360143  RH  033%=      5-min Rain = 0
KPMS 120010Z 30008G19KT 33/14 A2992 RMK A01 T03340135  RH  031%=      5-min Rain = 0
KPMS 120015Z 30012G22KT 34/13 A2992 RMK A01 T03360129  RH  030%=      5-min Rain = 0
KPMS 120020Z 30011G17KT 33/13 A2992 RMK A01 T03340126  RH  029%=      5-min Rain = 0
KPMS 120025Z 25006G12KT 33/13 A2993 RMK A01 T03340128  RH  030%=      5-min Rain = 0
KPMS 120030Z 28008KT 33/13 A2992 RMK A01 T03330128  RH  030%=      5-min Rain = 0
KPMS 120035Z 28008G14KT 33/13 A2992 RMK A01 T03270128  RH  031%=      5-min Rain = 0
KPMS 120040Z 28007G12KT 32/13 A2993 RMK A01 T03240128  RH  032%=      5-min Rain = 0
KPMS 120045Z 30008KT 32/13 A2993 RMK A01 T03190132  RH  033%=      5-min Rain = 0
KPMS 120050Z 31007KT 32/13 A2993 RMK A01 T03160133  RH  034%=      5-min Rain = 0
KPMS 120055Z 31006KT 31/13 A2993 RMK A01 T03140133  RH  035%=      5-min Rain = 0
KPMS 120100Z 33005KT 31/13 A2993 RMK A01 T03100133  RH  035%=      5-min Rain = 0
KPMS 120105Z 33004KT 31/13 A2993 RMK A01 T03050134  RH  037%=      5-min Rain = 0
KPMS 120110Z 35002KT 30/13 A2993 RMK A01 T03030133  RH  037%=      5-min Rain = 0
KPMS 120115Z 34003KT 30/13 A2993 RMK A01 T03030132  RH  037%=      5-min Rain = 0
KPMS 120120Z 03004KT 30/13 A2993 RMK A01 T02970134  RH  038%=      5-min Rain = 0
KPMS 120125Z 01006KT 30/14 A2993 RMK A01 T02950135  RH  039%=      5-min Rain = 0
KPMS 120130Z 00002KT 30/14 A2994 RMK A01 T02970135  RH  039%=      5-min Rain = 0
KPMS 120135Z 02004KT 30/14 A2994 RMK A01 T02970135  RH  038%=      5-min Rain = 0
KPMS 120140Z 07002KT 30/13 A2993 RMK A01 T02960134  RH  039%=      5-min Rain = 0
KPMS 120145Z 16006G14KT 31/13 A2993 RMK A01 T03120130  RH  034%=      5-min Rain = 0
KPMS 120150Z 18003KT 32/13 A2993 RMK A01 T03170132  RH  034%=      5-min Rain = 0
KPMS 120155Z 16006KT 32/13 A2993 RMK A01 T03160130  RH  033%=      5-min Rain = 0
KPMS 120200Z 16008KT 32/13 A2993 RMK A01 T03220129  RH  032%=      5-min Rain = 0
KPMS 120205Z 16008G13KT 32/13 A2993 RMK A01 T03220129  RH  032%=      5-min Rain = 0
KPMS 120210Z 16008KT 32/13 A2993 RMK A01 T03210129  RH  032%=      5-min Rain = 0
KPMS 120215Z 16008KT 31/13 A2993 RMK A01 T03130131  RH  034%=      5-min Rain = 0
KPMS 120220Z 17009KT 31/13 A2993 RMK A01 T03100132  RH  035%=      5-min Rain = 0
KPMS 120225Z 17009KT 31/13 A2993 RMK A01 T03070134  RH  036%=      5-min Rain = 0
KPMS 120230Z 17010KT 30/13 A2994 RMK A01 T03030133  RH  037%=      5-min Rain = 0
KPMS 120235Z 17011KT 31/13 A2994 RMK A01 T03060130  RH  035%=      5-min Rain = 0
KPMS 120240Z 17011KT 31/13 A2995 RMK A01 T03100128  RH  034%=      5-min Rain = 0
KPMS 120245Z 17011G16KT 31/13 A2995 RMK A01 T03110128  RH  034%=      5-min Rain = 0
KPMS 120250Z 18010KT 31/13 A2996 RMK A01 T03110128  RH  034%=      5-min Rain = 0
KPMS 120255Z 23009KT 31/13 A2997 RMK A01 T03090130  RH  035%=      5-min Rain = 0
KPMS 120300Z 28007KT 30/14 A2998 RMK A01 T03020139  RH  038%=      5-min Rain = 0
KPMS 120305Z 23008G17KT 30/14 A2999 RMK A01 T03030137  RH  038%=      5-min Rain = 0
KPMS 120310Z 29013G20KT 30/15 A30 RMK A01 T02980149  RH  042%=      5-min Rain = 0
KPMS 120315Z 29020G30KT 28/16 A3001 RMK A01 T02810157  RH  049%=      5-min Rain = 0
KPMS 120320Z 29016KT 28/16 A3001 RMK A01 T02760159  RH  051%=      5-min Rain = 0
KPMS 120325Z 29016G23KT 27/16 A3002 RMK A01 T02710164  RH  054%=      5-min Rain = 0
KPMS 120330Z 28014G22KT 27/17 A3002 RMK A01 T02650169  RH  058%=      5-min Rain = 0
KPMS 120335Z 28014G20KT 26/17 A3002 RMK A01 T02580171  RH  062%=      5-min Rain = 0
KPMS 120340Z 29014KT 26/17 A3003 RMK A01 T02560171  RH  062%=      5-min Rain = 0
KPMS 120345Z 28012G19KT 26/17 A3003 RMK A01 T02560170  RH  062%=      5-min Rain = 0
KPMS 120350Z 28010KT 25/17 A3003 RMK A01 T02540170  RH  063%=      5-min Rain = 0
KPMS 120355Z 27009G14KT 25/17 A3003 RMK A01 T02520171  RH  064%=      5-min Rain = 0
KPMS 120400Z 28011G16KT 25/17 A3003 RMK A01 T02510169  RH  063%=      5-min Rain = 0
KPMS 120405Z 27011G17KT 25/17 A3004 RMK A01 T02510169  RH  063%=      5-min Rain = 0
KPMS 120410Z 28012G19KT 25/17 A3004 RMK A01 T02480169  RH  065%=      5-min Rain = 0
KPMS 120415Z 27009G15KT 25/17 A3004 RMK A01 T02460169  RH  066%=      5-min Rain = 0
KPMS 120420Z 27011G16KT 25/17 A3003 RMK A01 T02460169  RH  065%=      5-min Rain = 0
KPMS 120425Z 27011KT 25/17 A3003 RMK A01 T02460168  RH  065%=      5-min Rain = 0
KPMS 120430Z 27012G17KT 25/17 A3003 RMK A01 T02470167  RH  064%=      5-min Rain = 0
KPMS 120435Z 28010G16KT 25/17 A3003 RMK A01 T02470166  RH  064%=      5-min Rain = 0
KPMS 120440Z 28010G16KT 25/16 A3003 RMK A01 T02470163  RH  062%=      5-min Rain = 0
KPMS 120445Z 28012KT 25/16 A3003 RMK A01 T02490160  RH  061%=      5-min Rain = 0
KPMS 120450Z 29013G18KT 25/16 A3003 RMK A01 T02510158  RH  059%=      5-min Rain = 0
KPMS 120455Z 28011G18KT 25/16 A3003 RMK A01 T02510156  RH  058%=      5-min Rain = 0

Page generated in 0.0093 seconds.